createdAt,value
2023-04-23T00:01:48.181Z,84.65
2023-04-23T00:04:19.004Z,86.02
2023-04-23T00:06:48.072Z,86.54
2023-04-23T00:09:16.809Z,86.69
2023-04-23T00:11:43.847Z,86.47
2023-04-23T00:14:13.980Z,86.02
2023-04-23T00:16:41.065Z,86.42
2023-04-23T00:19:07.737Z,86.75
2023-04-23T00:21:34.294Z,87.95
2023-04-23T00:24:00.911Z,88.21
2023-04-23T00:26:27.554Z,88.14
2023-04-23T00:28:54.254Z,88.54
2023-04-23T00:31:22.602Z,88.42
2023-04-23T00:33:49.223Z,88.17
2023-04-23T00:36:15.792Z,87.66
2023-04-23T00:38:42.356Z,87.73
2023-04-23T00:41:09.053Z,87.94
2023-04-23T00:43:35.704Z,88.34
2023-04-23T00:46:02.858Z,88.21
2023-04-23T00:48:29.808Z,87.41
2023-04-23T00:51:00.834Z,87.47
2023-04-23T00:53:27.477Z,87.31
2023-04-23T00:55:54.607Z,87.41
2023-04-23T00:58:21.522Z,87.50
2023-04-23T01:00:49.212Z,87.20
2023-04-23T01:03:18.449Z,88.50
2023-04-23T01:05:45.563Z,89.39
2023-04-23T01:08:15.991Z,89.40
2023-04-23T01:10:47.252Z,89.07
2023-04-23T01:13:14.003Z,89.68
2023-04-23T01:15:40.660Z,89.49
2023-04-23T01:18:11.058Z,89.36
2023-04-23T01:20:37.965Z,89.30
2023-04-23T01:23:05.109Z,88.78
2023-04-23T01:25:32.004Z,89.03
2023-04-23T01:27:58.826Z,88.40
2023-04-23T01:30:27.852Z,88.97
2023-04-23T01:32:56.175Z,89.34
2023-04-23T01:35:23.865Z,88.95
2023-04-23T01:37:54.445Z,89.08
2023-04-23T01:40:21.413Z,89.34
2023-04-23T01:42:48.689Z,89.27
2023-04-23T01:45:15.620Z,89.27
2023-04-23T01:47:42.455Z,89.13
2023-04-23T01:50:09.895Z,89.22
2023-04-23T01:52:36.561Z,89.15
2023-04-23T01:55:03.481Z,88.74
2023-04-23T01:57:30.521Z,89.34
2023-04-23T02:00:08.177Z,89.37
2023-04-23T02:02:39.729Z,89.87
2023-04-23T02:05:19.562Z,89.88
2023-04-23T02:07:48.608Z,89.86
2023-04-23T02:10:15.601Z,89.25
2023-04-23T02:12:42.575Z,88.88
2023-04-23T02:15:11.088Z,88.92
2023-04-23T02:17:39.954Z,88.86
2023-04-23T02:20:09.773Z,89.48
2023-04-23T02:22:37.937Z,89.72
2023-04-23T02:25:05.638Z,90.17
2023-04-23T02:27:33.374Z,89.71
2023-04-23T02:30:00.176Z,89.95
2023-04-23T02:32:28.103Z,90.24
2023-04-23T02:34:55.028Z,90.04
2023-04-23T02:37:21.592Z,90.09
2023-04-23T02:39:48.137Z,90.48
2023-04-23T02:42:14.784Z,91.94
2023-04-23T02:44:41.699Z,93.13
2023-04-23T02:47:08.489Z,93.54
2023-04-23T02:49:35.099Z,93.09
2023-04-23T02:52:01.859Z,92.36
2023-04-23T02:54:28.525Z,92.10
2023-04-23T02:56:55.161Z,92.12
2023-04-23T02:59:21.769Z,91.86
2023-04-23T03:01:48.348Z,90.92
2023-04-23T03:04:14.963Z,91.59
2023-04-23T03:06:41.984Z,91.19
2023-04-23T03:09:08.960Z,90.89
2023-04-23T03:11:35.537Z,89.92
2023-04-23T03:14:02.131Z,90.15
2023-04-23T03:16:31.295Z,90.39
2023-04-23T03:18:59.306Z,90.55
2023-04-23T03:21:26.125Z,91.44
2023-04-23T03:23:52.805Z,91.61
2023-04-23T03:26:19.371Z,92.18
2023-04-23T03:28:46.057Z,92.81
2023-04-23T03:31:12.630Z,93.11
2023-04-23T03:33:39.262Z,93.13
2023-04-23T03:36:05.920Z,92.56
2023-04-23T03:38:32.532Z,92.91
2023-04-23T03:40:59.155Z,93.24
2023-04-23T03:43:25.800Z,92.29
2023-04-23T03:45:52.360Z,92.51
2023-04-23T03:48:18.955Z,93.45
2023-04-23T03:50:45.651Z,93.28
2023-04-23T03:53:12.395Z,93.37
2023-04-23T03:55:39.026Z,93.34
2023-04-23T03:58:05.856Z,93.13
2023-04-23T04:00:32.489Z,93.66
2023-04-23T04:03:00.683Z,93.76
2023-04-23T04:05:28.077Z,94.18
2023-04-23T04:07:55.734Z,94.32
2023-04-23T04:10:22.493Z,94.93
2023-04-23T04:12:49.423Z,95.06
2023-04-23T04:15:17.442Z,95.14
2023-04-23T04:17:46.005Z,94.37
2023-04-23T04:20:12.986Z,93.25
2023-04-23T04:22:39.932Z,93.38
2023-04-23T04:25:07.069Z,92.92
2023-04-23T04:27:34.665Z,92.93
2023-04-23T04:30:02.167Z,93.71
2023-04-23T04:32:28.799Z,94.90
2023-04-23T04:34:55.416Z,95.19
2023-04-23T04:37:21.968Z,95.02
2023-04-23T04:39:48.668Z,94.79
2023-04-23T04:42:15.729Z,95.05
2023-04-23T04:44:43.673Z,94.68
2023-04-23T04:47:10.759Z,94.64
2023-04-23T04:49:38.396Z,94.08
2023-04-23T04:52:05.331Z,93.73
2023-04-23T04:54:31.976Z,93.65
2023-04-23T04:56:58.592Z,93.06
2023-04-23T04:59:25.227Z,93.33
2023-04-23T05:01:51.853Z,92.95
2023-04-23T05:04:18.676Z,92.88
2023-04-23T05:06:45.377Z,92.50
2023-04-23T05:09:12.003Z,92.59
2023-04-23T05:11:38.674Z,92.44
2023-04-23T05:14:05.279Z,92.39
2023-04-23T05:16:32.008Z,92.47
2023-04-23T05:18:58.702Z,92.52
2023-04-23T05:21:27.485Z,92.85
2023-04-23T05:23:55.211Z,92.64
2023-04-23T05:26:21.920Z,92.65
2023-04-23T05:28:48.480Z,92.90
2023-04-23T05:31:15.210Z,92.88
2023-04-23T05:33:49.720Z,92.93
2023-04-23T05:36:17.880Z,92.00
2023-04-23T05:38:44.478Z,92.21
2023-04-23T05:41:11.188Z,92.52
2023-04-23T05:43:37.768Z,92.81
2023-04-23T05:46:07.787Z,92.95
2023-04-23T05:48:34.748Z,91.95
2023-04-23T05:51:01.558Z,90.46
2023-04-23T05:53:28.609Z,88.98
2023-04-23T05:55:55.316Z,87.01
2023-04-23T05:58:22.196Z,85.35
2023-04-23T06:00:49.886Z,85.64
2023-04-23T06:03:16.662Z,83.98
2023-04-23T06:05:43.522Z,83.47
2023-04-23T06:08:10.192Z,81.07
2023-04-23T06:10:36.829Z,79.33
2023-04-23T06:13:03.475Z,76.68
2023-04-23T06:15:30.068Z,73.83
2023-04-23T06:17:56.798Z,74.89
2023-04-23T06:20:23.419Z,77.40
2023-04-23T06:22:49.963Z,75.54
2023-04-23T06:25:16.562Z,71.33
2023-04-23T06:27:43.150Z,72.69
2023-04-23T06:30:09.974Z,71.93
2023-04-23T06:32:36.552Z,74.48
2023-04-23T06:35:04.532Z,74.89
2023-04-23T06:37:31.784Z,72.96
2023-04-23T06:39:59.568Z,74.15
2023-04-23T06:42:26.392Z,72.24
2023-04-23T06:44:53.017Z,72.97
2023-04-23T06:47:20.185Z,72.67
2023-04-23T06:49:46.831Z,69.64
2023-04-23T06:52:13.439Z,69.75
2023-04-23T06:54:40.180Z,70.23
2023-04-23T06:57:07.086Z,69.54
2023-04-23T06:59:33.777Z,67.52
2023-04-23T07:02:00.490Z,64.93
2023-04-23T07:04:27.120Z,65.69
2023-04-23T07:06:53.699Z,59.22
2023-04-23T07:09:20.257Z,62.67
2023-04-23T07:11:47.344Z,63.83
2023-04-23T07:14:13.879Z,61.90
2023-04-23T07:16:40.483Z,61.47
2023-04-23T07:19:07.063Z,62.54
2023-04-23T07:21:33.644Z,60.21
2023-04-23T07:24:00.855Z,60.13
2023-04-23T07:26:28.054Z,61.12
2023-04-23T07:28:54.715Z,59.08
2023-04-23T07:31:21.982Z,59.09
2023-04-23T07:33:48.592Z,57.54
2023-04-23T07:36:15.399Z,58.56
2023-04-23T07:38:43.351Z,58.09
2023-04-23T07:41:10.071Z,56.71
2023-04-23T07:43:36.716Z,53.94
2023-04-23T07:46:03.442Z,56.20
2023-04-23T07:48:30.120Z,57.17
2023-04-23T07:50:57.159Z,56.34
2023-04-23T07:53:23.801Z,53.41
2023-04-23T07:55:50.413Z,49.62
2023-04-23T07:58:17.360Z,47.95
2023-04-23T08:00:43.963Z,46.80
2023-04-23T08:03:10.660Z,45.33
2023-04-23T08:05:39.154Z,46.34
2023-04-23T08:08:05.930Z,45.72
2023-04-23T08:10:32.655Z,45.13
2023-04-23T08:12:59.239Z,45.77
2023-04-23T08:15:25.832Z,44.25
2023-04-23T08:17:52.400Z,42.88
2023-04-23T08:20:19.322Z,45.41
2023-04-23T08:22:46.204Z,45.65
2023-04-23T08:25:15.713Z,45.06
2023-04-23T08:27:42.285Z,44.51
2023-04-23T08:30:09.593Z,42.53
2023-04-23T08:32:36.228Z,43.95
2023-04-23T08:35:02.977Z,43.50
2023-04-23T08:37:31.399Z,40.15
2023-04-23T08:39:58.630Z,41.02
2023-04-23T08:42:38.650Z,42.40
2023-04-23T08:45:06.094Z,39.95
2023-04-23T08:47:33.483Z,39.52
2023-04-23T08:50:00.166Z,37.07
2023-04-23T08:52:33.115Z,39.20
2023-04-23T08:55:10.734Z,38.91
2023-04-23T08:57:40.113Z,38.43
2023-04-23T09:00:08.624Z,37.34
2023-04-23T09:02:36.229Z,37.43
2023-04-23T09:05:04.608Z,37.24
2023-04-23T09:07:31.304Z,35.57
2023-04-23T09:09:58.394Z,36.64
2023-04-23T09:12:24.988Z,36.17
2023-04-23T09:14:51.500Z,33.73
2023-04-23T09:17:19.516Z,32.82
2023-04-23T09:19:46.696Z,34.68
2023-04-23T09:22:13.313Z,36.27
2023-04-23T09:24:46.043Z,33.79
2023-04-23T09:27:12.642Z,36.43
2023-04-23T09:29:39.386Z,34.77
2023-04-23T09:32:10.506Z,34.30
2023-04-23T09:34:41.257Z,34.94
2023-04-23T09:37:08.105Z,32.81
2023-04-23T09:39:36.104Z,32.67
2023-04-23T09:42:04.796Z,34.62
2023-04-23T09:44:35.142Z,32.39
2023-04-23T09:47:15.808Z,32.53
2023-04-23T09:49:47.685Z,31.54
2023-04-23T09:52:14.346Z,30.40
2023-04-23T09:54:41.046Z,34.43
2023-04-23T09:57:08.908Z,30.96
2023-04-23T09:59:47.756Z,29.23
2023-04-23T10:02:19.010Z,32.24
2023-04-23T10:04:52.064Z,32.30
2023-04-23T10:07:20.662Z,32.19
2023-04-23T10:09:48.322Z,30.19
2023-04-23T10:14:46.748Z,29.40
2023-04-23T10:17:13.978Z,28.15
2023-04-23T10:19:43.618Z,27.34
2023-04-23T10:22:19.337Z,29.54
2023-04-23T10:24:49.691Z,26.34
2023-04-23T10:27:28.817Z,28.87
2023-04-23T10:30:06.400Z,27.71
2023-04-23T10:32:37.557Z,26.47
2023-04-23T10:35:05.122Z,27.46
2023-04-23T10:37:32.186Z,25.57
2023-04-23T10:40:14.190Z,25.92
2023-04-23T10:42:42.791Z,26.87
2023-04-23T10:45:24.120Z,24.89
2023-04-23T10:47:52.813Z,24.40
2023-04-23T10:50:30.768Z,23.86
2023-04-23T10:52:58.310Z,23.71
2023-04-23T10:55:28.549Z,23.90
2023-04-23T10:58:03.151Z,24.47
2023-04-23T11:00:43.158Z,25.04
2023-04-23T11:03:37.939Z,26.86
2023-04-23T11:06:07.143Z,23.19
2023-04-23T11:08:37.676Z,25.31
2023-04-23T11:11:08.723Z,23.52
2023-04-23T11:13:35.399Z,24.52
2023-04-23T11:16:22.588Z,23.01
2023-04-23T11:18:56.500Z,24.04
2023-04-23T11:21:23.042Z,23.95
2023-04-23T11:23:49.604Z,23.53
2023-04-23T11:26:18.670Z,22.95
2023-04-23T11:28:46.462Z,23.76
2023-04-23T11:31:13.133Z,23.89
2023-04-23T11:33:39.774Z,24.41
2023-04-23T11:36:06.860Z,22.95
2023-04-23T11:38:36.876Z,25.18
2023-04-23T11:41:03.472Z,22.89
2023-04-23T11:43:30.355Z,23.65
2023-04-23T11:45:57.380Z,27.12
2023-04-23T11:48:24.136Z,27.32
2023-04-23T11:50:50.661Z,25.22
2023-04-23T11:53:19.056Z,26.79
2023-04-23T11:55:49.228Z,23.47
2023-04-23T11:58:18.760Z,22.38
2023-04-23T12:00:45.461Z,22.98
2023-04-23T12:03:13.930Z,23.84
2023-04-23T12:05:42.506Z,26.50
2023-04-23T12:08:17.456Z,25.96
2023-04-23T12:10:52.167Z,23.12
2023-04-23T12:13:24.479Z,22.92
2023-04-23T12:15:56.651Z,24.75
2023-04-23T12:18:30.832Z,23.01
2023-04-23T12:21:13.567Z,22.66
2023-04-23T12:23:42.738Z,23.25
2023-04-23T12:26:13.852Z,21.93
2023-04-23T12:28:59.180Z,23.10
2023-04-23T12:31:28.332Z,22.70
2023-04-23T12:33:59.460Z,23.08
2023-04-23T12:36:29.499Z,23.20
2023-04-23T12:38:56.335Z,24.35
2023-04-23T12:41:23.102Z,25.16
2023-04-23T12:43:51.156Z,23.68
2023-04-23T12:46:17.807Z,22.41
2023-04-23T12:48:44.653Z,21.32
2023-04-23T12:51:11.321Z,23.47
2023-04-23T12:53:37.925Z,23.84
2023-04-23T12:56:04.998Z,23.15
2023-04-23T12:58:31.611Z,21.68
2023-04-23T13:00:58.349Z,21.69
2023-04-23T13:03:25.745Z,21.96
2023-04-23T13:05:53.775Z,25.35
2023-04-23T13:08:20.333Z,24.10
2023-04-23T13:10:46.918Z,23.79
2023-04-23T13:13:13.476Z,23.52
2023-04-23T13:15:40.038Z,21.51
2023-04-23T13:18:06.898Z,20.19
2023-04-23T13:20:33.729Z,21.17
2023-04-23T13:23:01.498Z,20.01
2023-04-23T13:25:28.113Z,18.84
2023-04-23T13:27:56.155Z,19.44
2023-04-23T13:30:22.998Z,19.05
2023-04-23T13:32:49.593Z,19.88
2023-04-23T13:35:17.673Z,19.20
2023-04-23T13:37:44.357Z,21.40
2023-04-23T13:40:11.337Z,18.96
2023-04-23T13:42:37.929Z,18.06
2023-04-23T13:45:06.434Z,18.73
2023-04-23T13:47:34.813Z,18.83
2023-04-23T13:50:06.642Z,17.52
2023-04-23T13:52:33.847Z,16.08
2023-04-23T13:55:02.768Z,16.55
2023-04-23T13:57:29.580Z,17.50
2023-04-23T13:59:56.165Z,18.48
2023-04-23T14:02:24.057Z,17.59
2023-04-23T14:04:50.775Z,18.10
2023-04-23T14:07:17.515Z,18.22
2023-04-23T14:09:46.477Z,18.83
2023-04-23T14:12:13.071Z,18.35
2023-04-23T14:14:39.716Z,17.12
2023-04-23T14:17:06.464Z,17.49
2023-04-23T14:19:36.017Z,15.32
2023-04-23T14:22:02.965Z,16.31
2023-04-23T14:24:35.042Z,15.85
2023-04-23T14:27:03.736Z,16.50
2023-04-23T14:29:46.864Z,16.83
2023-04-23T14:32:14.287Z,15.14
2023-04-23T14:34:41.011Z,14.91
2023-04-23T14:37:07.835Z,16.33
2023-04-23T14:39:34.705Z,15.34
2023-04-23T14:42:03.633Z,14.79
2023-04-23T14:44:30.305Z,16.23
2023-04-23T14:46:57.216Z,15.15
2023-04-23T14:49:24.187Z,14.15
2023-04-23T14:51:55.177Z,12.99
2023-04-23T14:54:22.772Z,13.32
2023-04-23T14:56:50.469Z,13.81
2023-04-23T14:59:17.312Z,14.13
2023-04-23T15:01:44.271Z,13.51
2023-04-23T15:04:11.814Z,14.06
2023-04-23T15:06:40.478Z,14.33
2023-04-23T15:09:07.277Z,14.41
2023-04-23T15:11:34.025Z,14.19
2023-04-23T15:14:26.368Z,13.56
2023-04-23T15:16:53.019Z,14.32
2023-04-23T15:19:19.676Z,14.11
2023-04-23T15:21:47.076Z,13.75
2023-04-23T15:24:14.567Z,14.30
2023-04-23T15:26:41.216Z,15.44
2023-04-23T15:29:10.714Z,15.38
2023-04-23T15:31:38.517Z,17.69
2023-04-23T15:34:07.403Z,17.68
2023-04-23T15:36:35.621Z,18.19
2023-04-23T15:39:02.358Z,18.73
2023-04-23T15:41:29.001Z,19.97
2023-04-23T15:43:56.580Z,21.24
2023-04-23T15:46:23.230Z,20.85
2023-04-23T15:48:49.843Z,21.03
2023-04-23T15:51:16.492Z,19.16
2023-04-23T15:53:43.173Z,21.45
2023-04-23T15:56:09.714Z,21.80
2023-04-23T15:58:36.281Z,20.17
2023-04-23T16:01:03.170Z,22.00
2023-04-23T16:03:29.996Z,21.85
2023-04-23T16:05:56.776Z,21.33
2023-04-23T16:08:23.344Z,22.28
2023-04-23T16:10:50.002Z,21.63
2023-04-23T16:13:17.644Z,19.58
2023-04-23T16:15:44.228Z,19.07
2023-04-23T16:18:10.921Z,17.54
2023-04-23T16:20:37.540Z,20.74
2023-04-23T16:23:04.189Z,18.90
2023-04-23T16:25:30.880Z,17.92
2023-04-23T16:27:57.575Z,18.19
2023-04-23T16:30:24.731Z,17.98
2023-04-23T16:32:51.604Z,18.49
2023-04-23T16:35:18.365Z,18.92
2023-04-23T16:37:45.415Z,19.30
2023-04-23T16:40:15.091Z,19.62
2023-04-23T16:42:42.684Z,20.59
2023-04-23T16:45:09.508Z,19.46
2023-04-23T16:47:36.477Z,20.76
2023-04-23T16:50:03.126Z,21.33
2023-04-23T16:52:29.849Z,21.07
2023-04-23T16:54:56.398Z,22.01
2023-04-23T16:57:23.584Z,22.53
2023-04-23T16:59:51.152Z,22.85
2023-04-23T17:02:19.320Z,23.17
2023-04-23T17:04:46.430Z,24.95
2023-04-23T17:07:13.225Z,24.58
2023-04-23T17:09:39.882Z,25.89
2023-04-23T17:12:06.503Z,28.04
2023-04-23T17:14:33.032Z,27.33
2023-04-23T17:16:59.641Z,28.64
2023-04-23T17:19:26.214Z,27.67
2023-04-23T17:21:52.860Z,29.49
2023-04-23T17:24:19.472Z,29.01
2023-04-23T17:26:47.532Z,30.64
2023-04-23T17:29:14.133Z,30.80
2023-04-23T17:31:40.943Z,31.59
2023-04-23T17:34:07.663Z,32.24
2023-04-23T17:36:34.249Z,31.99
2023-04-23T17:39:01.012Z,32.76
2023-04-23T17:41:27.597Z,34.59
2023-04-23T17:43:54.171Z,34.50
2023-04-23T17:46:21.384Z,35.53
2023-04-23T17:48:48.363Z,36.01
2023-04-23T17:51:15.090Z,36.39
2023-04-23T17:53:42.302Z,35.84
2023-04-23T17:56:08.951Z,38.71
2023-04-23T17:58:36.163Z,42.12
2023-04-23T18:01:04.862Z,41.00
2023-04-23T18:03:32.260Z,42.38
2023-04-23T18:05:59.508Z,43.27
2023-04-23T18:08:26.269Z,43.99
2023-04-23T18:10:53.227Z,45.97
2023-04-23T18:13:19.857Z,45.81
2023-04-23T18:15:49.927Z,46.83
2023-04-23T18:18:17.990Z,47.61
2023-04-23T18:20:46.305Z,48.33
2023-04-23T18:23:14.263Z,49.46
2023-04-23T18:25:41.837Z,49.30
2023-04-23T18:28:08.439Z,49.55
2023-04-23T18:30:38.011Z,49.59
2023-04-23T18:33:13.784Z,49.69
2023-04-23T18:35:47.140Z,50.41
2023-04-23T18:38:32.260Z,50.89
2023-04-23T18:41:04.489Z,52.37
2023-04-23T18:43:34.525Z,51.49
2023-04-23T18:46:02.163Z,51.33
2023-04-23T18:48:34.544Z,52.33
2023-04-23T18:51:24.620Z,54.07
2023-04-23T18:53:51.330Z,54.36
2023-04-23T18:56:17.943Z,53.72
2023-04-23T18:58:44.572Z,53.55
2023-04-23T19:01:11.256Z,55.17
2023-04-23T19:03:38.105Z,55.04
2023-04-23T19:06:07.464Z,55.83
2023-04-23T19:08:35.772Z,56.06
2023-04-23T19:11:02.825Z,57.04
2023-04-23T19:13:32.970Z,58.08
2023-04-23T19:16:00.028Z,58.23
2023-04-23T19:18:27.385Z,59.66
2023-04-23T19:20:53.977Z,59.31
2023-04-23T19:23:20.927Z,59.78
2023-04-23T19:25:48.096Z,58.82
2023-04-23T19:28:15.912Z,60.32
2023-04-23T19:30:42.537Z,60.19
2023-04-23T19:33:09.145Z,61.01
2023-04-23T19:35:39.370Z,63.54
2023-04-23T19:38:06.955Z,61.75
2023-04-23T19:40:33.710Z,63.32
2023-04-23T19:43:00.363Z,63.86
2023-04-23T19:45:27.039Z,61.90
2023-04-23T19:47:53.851Z,62.45
2023-04-23T19:50:20.702Z,62.46
2023-04-23T19:52:47.383Z,61.60
2023-04-23T19:55:15.596Z,63.13
2023-04-23T19:57:42.310Z,63.60
2023-04-23T20:00:13.541Z,64.29
2023-04-23T20:02:41.196Z,64.72
2023-04-23T20:05:10.304Z,66.84
2023-04-23T20:07:37.764Z,65.56
2023-04-23T20:10:05.251Z,65.74
2023-04-23T20:12:33.326Z,65.41
2023-04-23T20:14:59.948Z,64.73
2023-04-23T20:17:27.205Z,66.35
2023-04-23T20:19:53.967Z,68.04
2023-04-23T20:22:20.600Z,66.24
2023-04-23T20:24:48.846Z,67.36
2023-04-23T20:27:18.501Z,67.10
2023-04-23T20:29:45.188Z,66.91
2023-04-23T20:32:11.868Z,67.26
2023-04-23T20:34:38.627Z,66.67
2023-04-23T20:37:06.840Z,67.21
2023-04-23T20:39:34.355Z,66.99
2023-04-23T20:42:01.611Z,68.77
2023-04-23T20:44:28.196Z,67.82
2023-04-23T20:46:57.786Z,67.57
2023-04-23T20:49:27.507Z,68.76
2023-04-23T20:51:54.145Z,69.12
2023-04-23T20:54:20.820Z,71.65
2023-04-23T20:56:47.413Z,70.68
2023-04-23T20:59:14.478Z,69.32
2023-04-23T21:01:41.301Z,69.72
2023-04-23T21:04:08.208Z,71.43
2023-04-23T21:06:35.050Z,71.76
2023-04-23T21:09:01.836Z,70.79
2023-04-23T21:11:29.338Z,72.13
2023-04-23T21:13:56.176Z,71.09
2023-04-23T21:16:22.851Z,71.04
2023-04-23T21:18:49.394Z,72.61
2023-04-23T21:21:15.935Z,72.06
2023-04-23T21:23:42.502Z,71.90
2023-04-23T21:26:09.197Z,71.77
2023-04-23T21:28:36.896Z,71.98
2023-04-23T21:31:17.658Z,72.45
2023-04-23T21:33:44.305Z,72.03
2023-04-23T21:36:10.882Z,71.33
2023-04-23T21:38:37.422Z,73.78
2023-04-23T21:41:04.311Z,73.08
2023-04-23T21:43:35.370Z,73.79
2023-04-23T21:46:02.070Z,73.61
2023-04-23T21:48:28.629Z,73.32
2023-04-23T21:50:55.330Z,73.21
2023-04-23T21:53:22.523Z,72.95
2023-04-23T21:55:49.187Z,72.89
2023-04-23T21:58:17.805Z,72.90
2023-04-23T22:00:45.552Z,72.85
2023-04-23T22:03:18.220Z,72.37
2023-04-23T22:05:56.001Z,72.69
2023-04-23T22:08:23.378Z,72.13
2023-04-23T22:10:49.936Z,72.75
2023-04-23T22:13:16.913Z,73.36
2023-04-23T22:15:44.404Z,73.86
2023-04-23T22:18:11.004Z,73.22
2023-04-23T22:20:39.161Z,73.80
2023-04-23T22:23:05.801Z,74.80
2023-04-23T22:25:32.381Z,74.15
2023-04-23T22:27:58.938Z,73.67
2023-04-23T22:30:25.681Z,74.27
2023-04-23T22:32:52.236Z,74.57
2023-04-23T22:35:19.101Z,77.07
2023-04-23T22:37:45.838Z,75.26
2023-04-23T22:40:12.887Z,74.79
2023-04-23T22:42:39.463Z,74.97
2023-04-23T22:45:06.782Z,74.72
2023-04-23T22:47:33.462Z,75.56
2023-04-23T22:50:00.095Z,76.01
2023-04-23T22:52:26.991Z,75.89
2023-04-23T22:54:54.975Z,75.40
2023-04-23T22:57:21.687Z,75.92
2023-04-23T22:59:48.583Z,76.80
2023-04-23T23:02:16.065Z,76.64
2023-04-23T23:04:42.875Z,76.93
2023-04-23T23:07:10.014Z,77.24
2023-04-23T23:09:36.564Z,76.63
2023-04-23T23:12:04.277Z,78.66
2023-04-23T23:14:31.906Z,77.72
2023-04-23T23:16:59.049Z,77.20
2023-04-23T23:19:30.971Z,77.64
2023-04-23T23:21:57.634Z,77.87
2023-04-23T23:24:24.225Z,79.95
2023-04-23T23:26:51.132Z,79.75
2023-04-23T23:29:17.831Z,80.57
2023-04-23T23:31:45.091Z,81.49
2023-04-23T23:34:12.137Z,80.34
2023-04-23T23:36:38.754Z,80.86
2023-04-23T23:39:06.748Z,80.89
2023-04-23T23:41:33.485Z,81.19
2023-04-23T23:44:00.087Z,80.74
2023-04-23T23:46:26.697Z,82.11
2023-04-23T23:48:53.432Z,81.15
2023-04-23T23:51:20.199Z,81.65
2023-04-23T23:53:46.953Z,80.78
2023-04-23T23:56:13.519Z,82.56
2023-04-23T23:58:40.106Z,82.28
